createdAt,value
2022-10-19T00:00:47.244Z,17.73
2022-10-19T00:03:55.334Z,19.55
2022-10-19T00:06:58.363Z,16.77
2022-10-19T00:10:01.550Z,25.98
2022-10-19T00:13:04.675Z,17.63
2022-10-19T00:16:14.147Z,16.42
2022-10-19T00:19:21.377Z,16.55
2022-10-19T00:22:24.397Z,15.13
2022-10-19T00:25:27.464Z,17.25
2022-10-19T00:28:30.877Z,16.42
2022-10-19T00:31:34.251Z,11.13
2022-10-19T00:34:37.399Z,14.15
2022-10-19T00:37:40.812Z,16.08
2022-10-19T00:40:44.600Z,11.23
2022-10-19T00:43:58.374Z,17.73
2022-10-19T00:47:05.643Z,15.15
2022-10-19T00:50:09.481Z,14.68
2022-10-19T00:53:12.903Z,14.50
2022-10-19T00:56:17.783Z,14.93
2022-10-19T00:59:22.619Z,18.13
2022-10-19T01:05:29.548Z,18.17
2022-10-19T01:08:33.364Z,9.60
2022-10-19T01:11:54.961Z,12.25
2022-10-19T01:15:07.457Z,12.05
2022-10-19T01:18:21.734Z,12.68
2022-10-19T01:21:38.004Z,17.48
2022-10-19T01:25:19.221Z,17.27
2022-10-19T01:28:50.150Z,22.25
2022-10-19T01:32:04.714Z,14.73
2022-10-19T01:35:18.656Z,15.43
2022-10-19T01:38:35.875Z,9.02
2022-10-19T01:41:57.748Z,11.73
2022-10-19T01:45:06.039Z,9.10
2022-10-19T01:48:31.455Z,5.40
2022-10-19T01:51:40.075Z,7.13
2022-10-19T01:54:50.885Z,10.30
2022-10-19T01:58:00.866Z,5.57
2022-10-19T02:01:08.108Z,12.43
2022-10-19T02:04:14.013Z,13.10
2022-10-19T02:07:17.661Z,10.93
2022-10-19T02:10:21.737Z,11.10
2022-10-19T02:13:27.225Z,13.93
2022-10-19T02:16:44.160Z,7.90
2022-10-19T02:19:47.129Z,5.70
2022-10-19T02:22:50.596Z,9.65
2022-10-19T02:25:54.281Z,6.78
2022-10-19T02:28:59.600Z,9.38
2022-10-19T02:32:03.438Z,9.65
2022-10-19T02:35:07.081Z,36.58
2022-10-19T02:38:12.781Z,12.63
2022-10-19T02:41:33.820Z,8.32
2022-10-19T02:44:54.115Z,9.90
2022-10-19T02:48:01.893Z,19.77
2022-10-19T02:51:05.002Z,9.82
2022-10-19T02:54:09.234Z,20.20
2022-10-19T02:57:24.515Z,10.48
2022-10-19T03:00:27.613Z,8.35
2022-10-19T03:03:30.568Z,8.13
2022-10-19T03:06:33.631Z,12.15
2022-10-19T03:09:40.924Z,9.98
2022-10-19T03:12:44.024Z,6.47
2022-10-19T03:15:48.079Z,13.95
2022-10-19T03:18:51.972Z,4.17
2022-10-19T03:21:55.004Z,5.65
2022-10-19T03:24:57.978Z,5.57
2022-10-19T03:28:01.093Z,8.40
2022-10-19T03:31:04.230Z,7.93
2022-10-19T03:34:07.382Z,9.38
2022-10-19T03:37:10.805Z,9.15
2022-10-19T03:40:13.759Z,12.95
2022-10-19T03:43:16.835Z,6.38
2022-10-19T03:46:20.563Z,10.52
2022-10-19T03:49:23.622Z,7.80
2022-10-19T03:52:26.664Z,11.45
2022-10-19T03:55:31.283Z,8.50
2022-10-19T03:58:36.518Z,4.95
2022-10-19T04:01:42.220Z,6.05
2022-10-19T04:04:45.340Z,9.30
2022-10-19T04:07:48.391Z,8.35
2022-10-19T04:10:51.501Z,7.95
2022-10-19T04:13:56.145Z,6.05
2022-10-19T04:16:59.184Z,2.55
2022-10-19T04:20:02.299Z,11.80
2022-10-19T04:23:05.350Z,8.88
2022-10-19T04:26:09.177Z,9.43
2022-10-19T04:29:12.664Z,12.60
2022-10-19T04:32:15.690Z,11.00
2022-10-19T04:35:18.766Z,5.38
2022-10-19T04:38:21.871Z,13.70
2022-10-19T04:41:25.527Z,12.82
2022-10-19T04:44:28.503Z,6.07
2022-10-19T04:47:31.799Z,11.38
2022-10-19T04:50:36.283Z,6.20
2022-10-19T04:53:42.618Z,7.43
2022-10-19T04:59:48.459Z,5.20
2022-10-19T05:02:51.515Z,5.75
2022-10-19T05:05:54.622Z,6.88
2022-10-19T05:08:58.339Z,6.63
2022-10-19T05:12:01.360Z,4.53
2022-10-19T05:15:05.232Z,5.95
2022-10-19T05:18:08.301Z,10.95
2022-10-19T05:21:15.657Z,4.25
2022-10-19T05:24:18.817Z,8.85
2022-10-19T05:27:22.830Z,9.48
2022-10-19T05:30:25.888Z,5.57
2022-10-19T05:33:28.906Z,7.95
2022-10-19T05:36:37.636Z,5.72
2022-10-19T05:39:41.004Z,5.82
2022-10-19T05:42:44.317Z,5.63
2022-10-19T05:45:47.330Z,8.45
2022-10-19T05:48:50.634Z,21.08
2022-10-19T05:51:53.836Z,12.75
2022-10-19T05:54:59.049Z,10.35
2022-10-19T05:58:02.157Z,5.82
2022-10-19T06:01:05.424Z,10.60
2022-10-19T06:04:08.890Z,5.72
2022-10-19T06:07:13.264Z,7.55
2022-10-19T06:10:16.543Z,8.38
2022-10-19T06:13:20.591Z,6.95
2022-10-19T06:16:26.362Z,5.03
2022-10-19T06:19:29.364Z,8.70
2022-10-19T06:22:32.472Z,4.50
2022-10-19T06:25:36.774Z,5.43
2022-10-19T06:28:41.909Z,4.57
2022-10-19T06:31:46.254Z,7.60
2022-10-19T06:34:50.855Z,2.83
2022-10-19T06:37:58.419Z,5.35
2022-10-19T06:41:01.983Z,4.65
2022-10-19T06:44:05.008Z,3.33
2022-10-19T06:47:08.001Z,7.82
2022-10-19T06:50:12.712Z,4.22
2022-10-19T06:53:15.893Z,3.17
2022-10-19T06:56:19.621Z,8.65
2022-10-19T06:59:22.693Z,5.60
2022-10-19T07:02:25.808Z,4.03
2022-10-19T07:05:28.881Z,11.52
2022-10-19T07:08:33.645Z,4.43
2022-10-19T07:11:36.874Z,9.50
2022-10-19T07:14:40.776Z,14.93
2022-10-19T07:17:43.767Z,9.95
2022-10-19T07:20:55.718Z,7.88
2022-10-19T07:23:58.960Z,4.35
2022-10-19T07:27:01.962Z,9.10
2022-10-19T07:30:05.362Z,6.90
2022-10-19T07:33:08.494Z,4.75
2022-10-19T07:36:13.700Z,5.85
2022-10-19T07:39:20.342Z,8.88
2022-10-19T07:42:23.395Z,9.63
2022-10-19T07:45:26.454Z,6.97
2022-10-19T07:48:30.015Z,4.68
2022-10-19T07:51:33.100Z,9.05
2022-10-19T07:54:36.426Z,10.18
2022-10-19T07:57:41.603Z,12.40
2022-10-19T08:00:47.036Z,12.23
2022-10-19T08:07:15.255Z,9.77
2022-10-19T08:10:18.306Z,13.75
2022-10-19T08:13:21.825Z,10.23
2022-10-19T08:16:37.299Z,9.48
2022-10-19T08:19:43.815Z,6.53
2022-10-19T08:22:47.422Z,9.02
2022-10-19T08:25:51.284Z,7.32
2022-10-19T08:28:59.407Z,11.98
2022-10-19T08:32:02.486Z,6.78
2022-10-19T08:35:09.994Z,9.88
2022-10-19T08:38:14.014Z,9.60
2022-10-19T08:41:25.799Z,8.43
2022-10-19T08:44:37.701Z,10.70
2022-10-19T08:47:52.582Z,11.18
2022-10-19T08:50:57.974Z,9.57
2022-10-19T08:54:03.582Z,12.52
2022-10-19T08:57:26.280Z,13.73
2022-10-19T09:00:41.435Z,16.45
2022-10-19T09:03:56.135Z,17.67
2022-10-19T09:07:30.376Z,17.30
2022-10-19T09:10:37.556Z,15.27
2022-10-19T09:14:04.365Z,22.35
2022-10-19T09:17:17.131Z,29.50
2022-10-19T09:20:30.354Z,19.20
2022-10-19T09:23:48.759Z,26.77
2022-10-19T09:26:58.337Z,26.80
2022-10-19T09:30:08.099Z,28.90
2022-10-19T09:33:19.903Z,27.98
2022-10-19T09:36:39.228Z,32.63
2022-10-19T09:39:52.446Z,34.43
2022-10-19T09:43:00.021Z,24.40
2022-10-19T09:49:42.919Z,26.05
2022-10-19T09:53:05.925Z,25.77
2022-10-19T09:56:18.082Z,31.30
2022-10-19T09:59:29.201Z,30.10
2022-10-19T10:02:34.100Z,37.10
2022-10-19T10:05:40.318Z,27.58
2022-10-19T10:08:53.197Z,31.70
2022-10-19T10:12:03.381Z,29.23
2022-10-19T10:15:08.105Z,31.13
2022-10-19T10:18:17.888Z,38.05
2022-10-19T10:21:37.049Z,29.92
2022-10-19T10:24:53.013Z,38.85
2022-10-19T10:28:03.086Z,34.83
2022-10-19T10:31:08.810Z,35.55
2022-10-19T10:34:45.566Z,39.30
2022-10-19T10:37:53.903Z,32.65
2022-10-19T10:41:30.314Z,28.92
2022-10-19T10:44:37.199Z,29.40
2022-10-19T10:47:40.482Z,25.48
2022-10-19T10:50:44.673Z,22.75
2022-10-19T10:53:48.191Z,29.80
2022-10-19T10:57:17.140Z,29.92
2022-10-19T11:00:24.678Z,27.98
2022-10-19T11:03:29.901Z,31.05
2022-10-19T11:06:39.620Z,26.65
2022-10-19T11:10:03.482Z,25.25
2022-10-19T11:13:12.168Z,22.50
2022-10-19T11:16:18.569Z,29.95
2022-10-19T11:19:26.555Z,27.15
2022-10-19T11:22:38.789Z,20.30
2022-10-19T11:26:20.329Z,32.20
2022-10-19T11:29:39.251Z,28.33
2022-10-19T11:33:03.562Z,42.05
2022-10-19T11:36:21.741Z,41.17
2022-10-19T11:39:36.996Z,48.42
2022-10-19T11:43:10.433Z,38.22
2022-10-19T11:46:21.400Z,32.90
2022-10-19T11:49:50.639Z,36.15
2022-10-19T11:53:05.542Z,28.77
2022-10-19T11:56:39.336Z,32.03
2022-10-19T12:00:33.775Z,25.55
2022-10-19T12:04:02.211Z,26.80
2022-10-19T12:07:11.158Z,24.65
2022-10-19T12:10:34.785Z,37.90
2022-10-19T12:13:45.212Z,27.80
2022-10-19T12:16:59.979Z,38.17
2022-10-19T12:20:26.069Z,39.22
2022-10-19T12:23:37.329Z,39.92
2022-10-19T12:26:42.106Z,29.52
2022-10-19T12:33:11.779Z,32.50
2022-10-19T12:36:51.184Z,31.23
2022-10-19T12:40:00.275Z,29.48
2022-10-19T12:43:28.537Z,34.85
2022-10-19T12:46:49.598Z,37.90
2022-10-19T12:49:56.862Z,37.13
2022-10-19T12:53:00.070Z,48.15
2022-10-19T12:56:20.598Z,30.73
2022-10-19T12:59:28.149Z,29.08
2022-10-19T13:02:36.248Z,27.13
2022-10-19T13:05:40.401Z,21.73
2022-10-19T13:08:56.087Z,23.23
2022-10-19T13:12:17.668Z,19.83
2022-10-19T13:15:37.779Z,20.65
2022-10-19T13:19:06.608Z,18.13
2022-10-19T13:22:26.526Z,13.63
2022-10-19T13:25:34.059Z,15.27
2022-10-19T13:28:39.694Z,19.92
2022-10-19T13:31:42.746Z,17.92
2022-10-19T13:34:46.974Z,21.25
2022-10-19T13:38:17.721Z,15.85
2022-10-19T13:41:29.384Z,25.60
2022-10-19T13:44:36.196Z,21.20
2022-10-19T13:47:43.385Z,19.27
2022-10-19T13:50:59.322Z,25.00
2022-10-19T13:54:20.968Z,25.25
2022-10-19T13:57:54.193Z,21.33
2022-10-19T14:01:19.556Z,22.63
2022-10-19T14:04:40.689Z,15.02
2022-10-19T14:08:10.495Z,15.63
2022-10-19T14:11:19.794Z,20.83
2022-10-19T14:14:26.038Z,19.25
2022-10-19T14:17:34.705Z,13.07
2022-10-19T14:20:39.630Z,15.15
2022-10-19T14:23:43.557Z,17.95
2022-10-19T14:26:47.723Z,16.60
2022-10-19T14:29:54.147Z,24.73
2022-10-19T14:33:01.268Z,12.63
2022-10-19T14:36:08.851Z,16.55
2022-10-19T14:39:33.665Z,23.48
2022-10-19T14:42:42.704Z,16.23
2022-10-19T14:45:45.734Z,21.92
2022-10-19T14:48:51.133Z,14.23
2022-10-19T14:55:16.933Z,14.70
2022-10-19T14:58:23.095Z,15.20
2022-10-19T15:01:26.495Z,19.30
2022-10-19T15:04:39.392Z,18.98
2022-10-19T15:07:44.252Z,15.05
2022-10-19T15:14:16.902Z,15.80
2022-10-19T15:17:31.918Z,17.45
2022-10-19T15:20:49.106Z,17.90
2022-10-19T15:24:28.592Z,11.75
2022-10-19T15:27:36.966Z,16.45
2022-10-19T15:30:40.015Z,12.52
2022-10-19T15:33:51.577Z,13.63
2022-10-19T15:37:00.242Z,13.48
2022-10-19T15:40:14.069Z,10.63
2022-10-19T15:43:35.716Z,15.73
2022-10-19T15:46:48.121Z,11.35
2022-10-19T15:50:04.005Z,10.68
2022-10-19T15:53:07.077Z,10.40
2022-10-19T15:56:12.460Z,12.55
2022-10-19T15:59:21.556Z,12.68
2022-10-19T16:02:25.810Z,12.07
2022-10-19T16:05:29.378Z,12.88
2022-10-19T16:08:32.529Z,11.75
2022-10-19T16:11:36.011Z,12.65
2022-10-19T16:14:39.380Z,12.80
2022-10-19T16:17:50.876Z,11.32
2022-10-19T16:20:54.164Z,11.45
2022-10-19T16:23:57.604Z,11.48
2022-10-19T16:27:00.680Z,10.55
2022-10-19T16:30:04.444Z,10.60
2022-10-19T16:33:07.483Z,10.18
2022-10-19T16:36:10.955Z,11.23
2022-10-19T16:39:14.004Z,11.88
2022-10-19T16:42:17.049Z,9.02
2022-10-19T16:45:20.024Z,11.70
2022-10-19T16:48:24.032Z,10.80
2022-10-19T16:51:45.433Z,10.15
2022-10-19T16:54:48.533Z,8.00
2022-10-19T16:57:53.289Z,9.73
2022-10-19T17:00:56.933Z,11.98
2022-10-19T17:04:00.371Z,9.35
2022-10-19T17:07:03.499Z,13.27
2022-10-19T17:10:06.931Z,8.85
2022-10-19T17:13:09.907Z,9.55
2022-10-19T17:16:13.982Z,10.02
2022-10-19T17:19:17.091Z,7.47
2022-10-19T17:22:20.101Z,9.27
2022-10-19T17:25:24.375Z,5.95
2022-10-19T17:28:27.845Z,10.07
2022-10-19T17:31:31.255Z,11.35
2022-10-19T17:34:34.295Z,9.45
2022-10-19T17:37:37.767Z,10.50
2022-10-19T17:40:41.080Z,7.45
2022-10-19T17:43:46.553Z,6.95
2022-10-19T17:46:50.018Z,8.52
2022-10-19T17:49:53.495Z,8.63
2022-10-19T17:52:56.634Z,6.90
2022-10-19T17:56:04.774Z,9.13
2022-10-19T17:59:09.527Z,12.00
2022-10-19T18:02:12.557Z,10.13
2022-10-19T18:05:15.682Z,10.80
2022-10-19T18:08:18.636Z,9.55
2022-10-19T18:11:25.375Z,10.55
2022-10-19T18:14:28.431Z,12.23
2022-10-19T18:17:31.453Z,13.10
2022-10-19T18:20:34.421Z,16.52
2022-10-19T18:23:37.665Z,13.73
2022-10-19T18:26:40.958Z,15.45
2022-10-19T18:29:44.429Z,16.52
2022-10-19T18:32:51.847Z,16.90
2022-10-19T18:35:59.159Z,15.70
2022-10-19T18:39:04.365Z,15.68
2022-10-19T18:42:07.347Z,24.42
2022-10-19T18:45:10.775Z,21.17
2022-10-19T18:48:13.787Z,26.20
2022-10-19T18:51:20.190Z,21.40
2022-10-19T18:54:23.318Z,22.58
2022-10-19T18:57:30.831Z,26.40
2022-10-19T19:00:35.607Z,26.98
2022-10-19T19:03:40.728Z,22.90
2022-10-19T19:06:45.117Z,23.35
2022-10-19T19:09:48.308Z,25.60
2022-10-19T19:12:52.162Z,24.15
2022-10-19T19:16:00.055Z,30.52
2022-10-19T19:19:03.364Z,18.75
2022-10-19T19:22:08.595Z,19.25
2022-10-19T19:25:12.047Z,16.95
2022-10-19T19:28:16.164Z,16.67
2022-10-19T19:31:21.033Z,21.43
2022-10-19T19:37:26.813Z,18.40
2022-10-19T19:40:29.878Z,14.38
2022-10-19T19:43:35.439Z,14.40
2022-10-19T19:46:39.080Z,20.15
2022-10-19T19:49:42.047Z,16.17
2022-10-19T19:52:45.076Z,14.13
2022-10-19T19:55:49.027Z,15.30
2022-10-19T19:58:56.753Z,12.35
2022-10-19T20:01:59.811Z,11.85
2022-10-19T20:05:02.809Z,13.05
2022-10-19T20:08:06.129Z,13.32
2022-10-19T20:11:14.499Z,10.40
2022-10-19T20:14:19.411Z,10.27
2022-10-19T20:17:24.446Z,12.45
2022-10-19T20:20:27.563Z,10.48
2022-10-19T20:23:31.087Z,10.50
2022-10-19T20:26:34.413Z,11.88
2022-10-19T20:29:37.411Z,11.20
2022-10-19T20:32:40.595Z,13.77
2022-10-19T20:35:43.705Z,14.90
2022-10-19T20:38:49.164Z,11.93
2022-10-19T20:41:52.164Z,13.30
2022-10-19T20:44:56.047Z,9.70
2022-10-19T20:47:59.067Z,9.57
2022-10-19T20:51:09.757Z,8.88
2022-10-19T20:54:13.498Z,11.25
2022-10-19T20:57:16.472Z,11.82
2022-10-19T21:00:19.634Z,9.10
2022-10-19T21:03:24.389Z,10.25
2022-10-19T21:06:29.759Z,11.00
2022-10-19T21:09:32.846Z,8.43
2022-10-19T21:12:36.357Z,8.40
2022-10-19T21:15:39.796Z,12.20
2022-10-19T21:18:43.674Z,9.02
2022-10-19T21:21:49.669Z,11.20
2022-10-19T21:24:52.770Z,10.18
2022-10-19T21:27:55.877Z,8.60
2022-10-19T21:31:04.428Z,8.18
2022-10-19T21:34:09.913Z,13.70
2022-10-19T21:37:12.877Z,21.77
2022-10-19T21:40:16.015Z,26.05
2022-10-19T21:43:19.199Z,27.10
2022-10-19T21:46:23.128Z,24.02
2022-10-19T21:49:26.087Z,14.70
2022-10-19T21:52:29.216Z,9.85
2022-10-19T21:55:35.511Z,9.90
2022-10-19T21:58:38.462Z,18.40
2022-10-19T22:01:42.326Z,10.85
2022-10-19T22:04:45.379Z,7.90
2022-10-19T22:07:48.766Z,9.55
2022-10-19T22:10:51.953Z,8.63
2022-10-19T22:13:59.562Z,9.55
2022-10-19T22:17:02.556Z,9.07
2022-10-19T22:20:06.280Z,6.95
2022-10-19T22:23:09.374Z,7.55
2022-10-19T22:26:17.007Z,5.13
2022-10-19T22:29:20.437Z,6.38
2022-10-19T22:32:23.387Z,5.63
2022-10-19T22:35:26.407Z,6.80
2022-10-19T22:38:30.188Z,10.63
2022-10-19T22:41:33.213Z,17.33
2022-10-19T22:44:36.264Z,22.90
2022-10-19T22:47:39.363Z,11.65
2022-10-19T22:50:42.706Z,15.98
2022-10-19T22:53:45.690Z,17.05
2022-10-19T22:56:48.761Z,21.17
2022-10-19T22:59:51.774Z,22.48
2022-10-19T23:02:54.759Z,38.45
2022-10-19T23:05:58.141Z,25.98
2022-10-19T23:09:01.207Z,18.48
2022-10-19T23:12:04.395Z,16.83
2022-10-19T23:15:08.055Z,16.80
2022-10-19T23:18:11.334Z,22.70
2022-10-19T23:21:15.464Z,20.55
2022-10-19T23:24:18.515Z,17.45
2022-10-19T23:27:21.780Z,10.85
2022-10-19T23:30:24.817Z,15.98
2022-10-19T23:33:27.915Z,17.70
2022-10-19T23:36:30.894Z,17.00
2022-10-19T23:39:33.902Z,27.45
2022-10-19T23:42:36.949Z,25.27
2022-10-19T23:45:40.274Z,26.58
2022-10-19T23:48:43.707Z,21.90
2022-10-19T23:51:46.678Z,39.88
2022-10-19T23:54:49.643Z,30.92
2022-10-19T23:57:52.620Z,31.20
